sensor_id;sensor_type;location;lat;lon;timestamp;P1;durP1;ratioP1;P2;durP2;ratioP2
15312;SDS011;7757;52.626;4.746;2022-11-20T00:00:21;10.25;;;3.40;;
15312;SDS011;7757;52.626;4.746;2022-11-20T00:02:47;11.18;;;3.35;;
15312;SDS011;7757;52.626;4.746;2022-11-20T00:05:14;10.68;;;2.95;;
15312;SDS011;7757;52.626;4.746;2022-11-20T00:07:41;8.88;;;2.80;;
15312;SDS011;7757;52.626;4.746;2022-11-20T00:10:07;8.85;;;2.60;;
15312;SDS011;7757;52.626;4.746;2022-11-20T00:12:34;9.75;;;2.80;;
15312;SDS011;7757;52.626;4.746;2022-11-20T00:15:02;10.05;;;3.17;;
15312;SDS011;7757;52.626;4.746;2022-11-20T00:17:29;10.45;;;3.00;;
15312;SDS011;7757;52.626;4.746;2022-11-20T00:19:56;9.82;;;3.00;;
15312;SDS011;7757;52.626;4.746;2022-11-20T00:22:23;9.80;;;2.90;;
15312;SDS011;7757;52.626;4.746;2022-11-20T00:24:49;9.95;;;2.70;;
15312;SDS011;7757;52.626;4.746;2022-11-20T00:27:16;10.45;;;2.83;;
15312;SDS011;7757;52.626;4.746;2022-11-20T00:29:42;10.07;;;3.13;;
15312;SDS011;7757;52.626;4.746;2022-11-20T00:32:10;10.95;;;2.95;;
15312;SDS011;7757;52.626;4.746;2022-11-20T00:34:37;10.25;;;2.97;;
15312;SDS011;7757;52.626;4.746;2022-11-20T00:37:03;9.40;;;2.75;;
15312;SDS011;7757;52.626;4.746;2022-11-20T00:39:30;9.68;;;2.88;;
15312;SDS011;7757;52.626;4.746;2022-11-20T00:41:56;10.32;;;2.80;;
15312;SDS011;7757;52.626;4.746;2022-11-20T00:44:23;10.30;;;2.70;;
15312;SDS011;7757;52.626;4.746;2022-11-20T00:46:50;10.55;;;2.83;;
15312;SDS011;7757;52.626;4.746;2022-11-20T00:49:18;9.55;;;2.95;;
15312;SDS011;7757;52.626;4.746;2022-11-20T00:51:44;10.63;;;3.05;;
15312;SDS011;7757;52.626;4.746;2022-11-20T00:54:11;9.65;;;3.20;;
15312;SDS011;7757;52.626;4.746;2022-11-20T00:56:37;11.02;;;3.10;;
15312;SDS011;7757;52.626;4.746;2022-11-20T00:59:05;10.80;;;3.05;;
15312;SDS011;7757;52.626;4.746;2022-11-20T01:01:31;10.48;;;3.08;;
15312;SDS011;7757;52.626;4.746;2022-11-20T01:03:59;12.48;;;2.95;;
15312;SDS011;7757;52.626;4.746;2022-11-20T01:06:28;9.70;;;3.05;;
15312;SDS011;7757;52.626;4.746;2022-11-20T01:08:56;11.70;;;3.20;;
15312;SDS011;7757;52.626;4.746;2022-11-20T01:11:25;10.45;;;3.10;;
15312;SDS011;7757;52.626;4.746;2022-11-20T01:13:54;11.20;;;3.00;;
15312;SDS011;7757;52.626;4.746;2022-11-20T01:16:22;12.25;;;3.17;;
15312;SDS011;7757;52.626;4.746;2022-11-20T01:18:51;10.20;;;3.17;;
15312;SDS011;7757;52.626;4.746;2022-11-20T01:21:19;12.02;;;3.50;;
15312;SDS011;7757;52.626;4.746;2022-11-20T01:23:48;11.65;;;3.17;;
15312;SDS011;7757;52.626;4.746;2022-11-20T01:26:16;9.60;;;2.90;;
15312;SDS011;7757;52.626;4.746;2022-11-20T01:28:44;11.00;;;3.25;;
15312;SDS011;7757;52.626;4.746;2022-11-20T01:31:12;11.45;;;3.38;;
15312;SDS011;7757;52.626;4.746;2022-11-20T01:33:40;11.05;;;3.00;;
15312;SDS011;7757;52.626;4.746;2022-11-20T01:36:07;10.93;;;2.97;;
15312;SDS011;7757;52.626;4.746;2022-11-20T01:38:35;10.52;;;2.83;;
15312;SDS011;7757;52.626;4.746;2022-11-20T01:41:03;10.82;;;3.08;;
15312;SDS011;7757;52.626;4.746;2022-11-20T01:43:30;9.98;;;2.83;;
15312;SDS011;7757;52.626;4.746;2022-11-20T01:45:58;9.35;;;2.97;;
15312;SDS011;7757;52.626;4.746;2022-11-20T01:48:40;9.45;;;2.90;;
15312;SDS011;7757;52.626;4.746;2022-11-20T01:51:13;10.30;;;2.60;;
15312;SDS011;7757;52.626;4.746;2022-11-20T01:53:45;10.50;;;2.70;;
15312;SDS011;7757;52.626;4.746;2022-11-20T01:56:14;9.60;;;2.90;;
15312;SDS011;7757;52.626;4.746;2022-11-20T01:58:42;11.52;;;3.20;;
15312;SDS011;7757;52.626;4.746;2022-11-20T02:01:13;10.02;;;2.95;;
15312;SDS011;7757;52.626;4.746;2022-11-20T02:03:40;10.32;;;2.95;;
15312;SDS011;7757;52.626;4.746;2022-11-20T02:06:10;10.27;;;3.13;;
15312;SDS011;7757;52.626;4.746;2022-11-20T02:08:40;9.10;;;2.75;;
15312;SDS011;7757;52.626;4.746;2022-11-20T02:11:07;9.10;;;2.80;;
15312;SDS011;7757;52.626;4.746;2022-11-20T02:13:35;9.35;;;2.78;;
15312;SDS011;7757;52.626;4.746;2022-11-20T02:16:21;11.32;;;3.00;;
15312;SDS011;7757;52.626;4.746;2022-11-20T02:18:50;9.13;;;2.72;;
15312;SDS011;7757;52.626;4.746;2022-11-20T02:21:23;9.10;;;2.53;;
15312;SDS011;7757;52.626;4.746;2022-11-20T02:24:02;11.15;;;2.83;;
15312;SDS011;7757;52.626;4.746;2022-11-20T02:26:33;12.88;;;3.17;;
15312;SDS011;7757;52.626;4.746;2022-11-20T02:29:04;10.00;;;2.75;;
15312;SDS011;7757;52.626;4.746;2022-11-20T02:31:38;10.98;;;2.80;;
15312;SDS011;7757;52.626;4.746;2022-11-20T02:34:08;9.23;;;2.63;;
15312;SDS011;7757;52.626;4.746;2022-11-20T02:36:34;11.00;;;3.10;;
15312;SDS011;7757;52.626;4.746;2022-11-20T02:39:05;9.85;;;3.00;;
15312;SDS011;7757;52.626;4.746;2022-11-20T02:41:33;7.85;;;2.33;;
15312;SDS011;7757;52.626;4.746;2022-11-20T02:44:00;8.98;;;2.63;;
15312;SDS011;7757;52.626;4.746;2022-11-20T02:46:27;9.77;;;2.70;;
15312;SDS011;7757;52.626;4.746;2022-11-20T02:48:54;9.55;;;2.78;;
15312;SDS011;7757;52.626;4.746;2022-11-20T02:51:21;13.38;;;3.00;;
15312;SDS011;7757;52.626;4.746;2022-11-20T02:53:48;10.35;;;3.22;;
15312;SDS011;7757;52.626;4.746;2022-11-20T02:56:16;9.73;;;2.85;;
15312;SDS011;7757;52.626;4.746;2022-11-20T02:58:42;10.23;;;2.70;;
15312;SDS011;7757;52.626;4.746;2022-11-20T03:01:09;10.00;;;3.08;;
15312;SDS011;7757;52.626;4.746;2022-11-20T03:03:36;9.65;;;2.70;;
15312;SDS011;7757;52.626;4.746;2022-11-20T03:06:03;10.32;;;2.88;;
15312;SDS011;7757;52.626;4.746;2022-11-20T03:08:31;9.68;;;2.90;;
15312;SDS011;7757;52.626;4.746;2022-11-20T03:11:01;10.13;;;2.60;;
15312;SDS011;7757;52.626;4.746;2022-11-20T03:13:30;9.57;;;2.70;;
15312;SDS011;7757;52.626;4.746;2022-11-20T03:15:56;11.77;;;2.90;;
15312;SDS011;7757;52.626;4.746;2022-11-20T03:18:23;8.48;;;2.60;;
15312;SDS011;7757;52.626;4.746;2022-11-20T03:20:49;8.60;;;2.50;;
15312;SDS011;7757;52.626;4.746;2022-11-20T03:23:16;10.75;;;2.60;;
15312;SDS011;7757;52.626;4.746;2022-11-20T03:25:42;9.95;;;2.65;;
15312;SDS011;7757;52.626;4.746;2022-11-20T03:28:09;10.15;;;3.10;;
15312;SDS011;7757;52.626;4.746;2022-11-20T03:30:37;9.82;;;2.90;;
15312;SDS011;7757;52.626;4.746;2022-11-20T03:33:04;9.30;;;2.75;;
15312;SDS011;7757;52.626;4.746;2022-11-20T03:35:30;11.02;;;2.65;;
15312;SDS011;7757;52.626;4.746;2022-11-20T03:37:57;7.68;;;2.15;;
15312;SDS011;7757;52.626;4.746;2022-11-20T03:40:24;9.65;;;2.80;;
15312;SDS011;7757;52.626;4.746;2022-11-20T03:42:50;10.40;;;2.80;;
15312;SDS011;7757;52.626;4.746;2022-11-20T03:45:17;10.23;;;2.80;;
15312;SDS011;7757;52.626;4.746;2022-11-20T03:47:46;9.10;;;2.70;;
15312;SDS011;7757;52.626;4.746;2022-11-20T03:50:13;8.95;;;2.65;;
15312;SDS011;7757;52.626;4.746;2022-11-20T03:52:42;9.85;;;3.05;;
15312;SDS011;7757;52.626;4.746;2022-11-20T03:55:09;10.73;;;2.78;;
15312;SDS011;7757;52.626;4.746;2022-11-20T03:57:36;9.98;;;2.58;;
15312;SDS011;7757;52.626;4.746;2022-11-20T04:00:03;9.02;;;2.70;;
15312;SDS011;7757;52.626;4.746;2022-11-20T04:02:31;8.93;;;2.60;;
15312;SDS011;7757;52.626;4.746;2022-11-20T04:04:59;8.85;;;2.60;;
15312;SDS011;7757;52.626;4.746;2022-11-20T04:07:27;10.13;;;2.92;;
15312;SDS011;7757;52.626;4.746;2022-11-20T04:09:53;8.32;;;2.70;;
15312;SDS011;7757;52.626;4.746;2022-11-20T04:12:20;9.98;;;2.80;;
15312;SDS011;7757;52.626;4.746;2022-11-20T04:14:47;9.60;;;2.70;;
15312;SDS011;7757;52.626;4.746;2022-11-20T04:17:13;10.25;;;2.70;;
15312;SDS011;7757;52.626;4.746;2022-11-20T04:19:40;8.70;;;2.63;;
15312;SDS011;7757;52.626;4.746;2022-11-20T04:22:08;9.23;;;2.63;;
15312;SDS011;7757;52.626;4.746;2022-11-20T04:24:36;8.20;;;2.47;;
15312;SDS011;7757;52.626;4.746;2022-11-20T04:27:03;9.25;;;2.80;;
15312;SDS011;7757;52.626;4.746;2022-11-20T04:29:30;9.82;;;2.70;;
15312;SDS011;7757;52.626;4.746;2022-11-20T04:31:56;9.73;;;2.80;;
15312;SDS011;7757;52.626;4.746;2022-11-20T04:34:23;9.10;;;2.63;;
15312;SDS011;7757;52.626;4.746;2022-11-20T04:36:50;9.77;;;2.67;;
15312;SDS011;7757;52.626;4.746;2022-11-20T04:39:18;9.50;;;2.70;;
15312;SDS011;7757;52.626;4.746;2022-11-20T04:41:44;8.95;;;2.67;;
15312;SDS011;7757;52.626;4.746;2022-11-20T04:44:11;7.18;;;2.47;;
15312;SDS011;7757;52.626;4.746;2022-11-20T04:46:39;8.40;;;2.42;;
15312;SDS011;7757;52.626;4.746;2022-11-20T04:49:07;10.70;;;2.90;;
15312;SDS011;7757;52.626;4.746;2022-11-20T04:51:35;8.18;;;2.50;;
15312;SDS011;7757;52.626;4.746;2022-11-20T04:54:01;9.82;;;2.80;;
15312;SDS011;7757;52.626;4.746;2022-11-20T04:56:30;8.90;;;2.65;;
15312;SDS011;7757;52.626;4.746;2022-11-20T04:58:59;9.10;;;2.60;;
15312;SDS011;7757;52.626;4.746;2022-11-20T05:01:27;9.77;;;2.72;;
15312;SDS011;7757;52.626;4.746;2022-11-20T05:03:53;9.20;;;2.55;;
15312;SDS011;7757;52.626;4.746;2022-11-20T05:06:20;9.23;;;2.88;;
15312;SDS011;7757;52.626;4.746;2022-11-20T05:08:48;9.52;;;2.90;;
15312;SDS011;7757;52.626;4.746;2022-11-20T05:11:16;9.70;;;3.20;;
15312;SDS011;7757;52.626;4.746;2022-11-20T05:13:45;10.10;;;2.80;;
15312;SDS011;7757;52.626;4.746;2022-11-20T05:16:13;8.43;;;2.67;;
15312;SDS011;7757;52.626;4.746;2022-11-20T05:18:41;10.88;;;3.10;;
15312;SDS011;7757;52.626;4.746;2022-11-20T05:21:08;10.13;;;2.90;;
15312;SDS011;7757;52.626;4.746;2022-11-20T05:23:36;9.57;;;2.83;;
15312;SDS011;7757;52.626;4.746;2022-11-20T05:26:03;9.43;;;2.60;;
15312;SDS011;7757;52.626;4.746;2022-11-20T05:28:30;8.60;;;2.88;;
15312;SDS011;7757;52.626;4.746;2022-11-20T05:31:04;9.30;;;3.00;;
15312;SDS011;7757;52.626;4.746;2022-11-20T05:33:32;9.30;;;2.80;;
15312;SDS011;7757;52.626;4.746;2022-11-20T05:35:59;10.00;;;2.90;;
15312;SDS011;7757;52.626;4.746;2022-11-20T05:38:26;11.85;;;2.92;;
15312;SDS011;7757;52.626;4.746;2022-11-20T05:40:52;9.88;;;3.05;;
15312;SDS011;7757;52.626;4.746;2022-11-20T05:43:19;8.90;;;2.72;;
15312;SDS011;7757;52.626;4.746;2022-11-20T05:45:51;9.55;;;2.85;;
15312;SDS011;7757;52.626;4.746;2022-11-20T05:48:19;9.82;;;2.95;;
15312;SDS011;7757;52.626;4.746;2022-11-20T05:50:46;8.73;;;2.53;;
15312;SDS011;7757;52.626;4.746;2022-11-20T05:53:13;9.48;;;2.90;;
15312;SDS011;7757;52.626;4.746;2022-11-20T05:55:39;9.07;;;2.65;;
15312;SDS011;7757;52.626;4.746;2022-11-20T05:58:06;9.15;;;2.70;;
15312;SDS011;7757;52.626;4.746;2022-11-20T06:00:33;9.38;;;2.78;;
15312;SDS011;7757;52.626;4.746;2022-11-20T06:03:00;9.13;;;2.60;;
15312;SDS011;7757;52.626;4.746;2022-11-20T06:05:28;9.55;;;2.30;;
15312;SDS011;7757;52.626;4.746;2022-11-20T06:07:55;9.02;;;2.80;;
15312;SDS011;7757;52.626;4.746;2022-11-20T06:10:22;9.25;;;2.50;;
15312;SDS011;7757;52.626;4.746;2022-11-20T06:12:49;9.70;;;2.75;;
15312;SDS011;7757;52.626;4.746;2022-11-20T06:15:15;10.40;;;2.90;;
15312;SDS011;7757;52.626;4.746;2022-11-20T06:17:42;10.52;;;2.92;;
15312;SDS011;7757;52.626;4.746;2022-11-20T06:20:09;9.48;;;2.60;;
15312;SDS011;7757;52.626;4.746;2022-11-20T06:22:37;10.00;;;3.03;;
15312;SDS011;7757;52.626;4.746;2022-11-20T06:25:04;9.73;;;2.65;;
15312;SDS011;7757;52.626;4.746;2022-11-20T06:27:31;9.48;;;2.63;;
15312;SDS011;7757;52.626;4.746;2022-11-20T06:29:57;8.32;;;2.88;;
15312;SDS011;7757;52.626;4.746;2022-11-20T06:32:24;9.95;;;2.63;;
15312;SDS011;7757;52.626;4.746;2022-11-20T06:34:50;9.70;;;2.78;;
15312;SDS011;7757;52.626;4.746;2022-11-20T06:37:17;9.48;;;2.70;;
15312;SDS011;7757;52.626;4.746;2022-11-20T06:39:45;9.77;;;2.60;;
15312;SDS011;7757;52.626;4.746;2022-11-20T06:42:12;12.50;;;2.70;;
15312;SDS011;7757;52.626;4.746;2022-11-20T06:44:38;9.93;;;3.10;;
15312;SDS011;7757;52.626;4.746;2022-11-20T06:47:07;9.15;;;2.70;;
15312;SDS011;7757;52.626;4.746;2022-11-20T06:49:33;9.95;;;2.65;;
15312;SDS011;7757;52.626;4.746;2022-11-20T06:52:02;10.20;;;3.03;;
15312;SDS011;7757;52.626;4.746;2022-11-20T06:54:28;10.05;;;2.80;;
15312;SDS011;7757;52.626;4.746;2022-11-20T06:56:57;11.07;;;2.72;;
15312;SDS011;7757;52.626;4.746;2022-11-20T06:59:24;8.63;;;2.45;;
15312;SDS011;7757;52.626;4.746;2022-11-20T07:01:51;9.80;;;2.65;;
15312;SDS011;7757;52.626;4.746;2022-11-20T07:04:17;8.55;;;2.58;;
15312;SDS011;7757;52.626;4.746;2022-11-20T07:06:44;9.10;;;2.60;;
15312;SDS011;7757;52.626;4.746;2022-11-20T07:09:11;10.52;;;2.63;;
15312;SDS011;7757;52.626;4.746;2022-11-20T07:11:37;8.98;;;2.70;;
15312;SDS011;7757;52.626;4.746;2022-11-20T07:14:05;9.82;;;2.50;;
15312;SDS011;7757;52.626;4.746;2022-11-20T07:16:32;9.65;;;2.67;;
15312;SDS011;7757;52.626;4.746;2022-11-20T07:18:58;9.27;;;2.67;;
15312;SDS011;7757;52.626;4.746;2022-11-20T07:21:25;9.80;;;2.92;;
15312;SDS011;7757;52.626;4.746;2022-11-20T07:23:51;8.55;;;2.58;;
15312;SDS011;7757;52.626;4.746;2022-11-20T07:26:18;9.43;;;2.63;;
15312;SDS011;7757;52.626;4.746;2022-11-20T07:28:45;8.30;;;2.38;;
15312;SDS011;7757;52.626;4.746;2022-11-20T07:31:13;9.00;;;2.53;;
15312;SDS011;7757;52.626;4.746;2022-11-20T07:33:40;8.68;;;2.53;;
15312;SDS011;7757;52.626;4.746;2022-11-20T07:36:06;8.65;;;2.60;;
15312;SDS011;7757;52.626;4.746;2022-11-20T07:38:34;8.65;;;2.40;;
15312;SDS011;7757;52.626;4.746;2022-11-20T07:41:00;8.50;;;2.70;;
15312;SDS011;7757;52.626;4.746;2022-11-20T07:43:27;9.05;;;2.58;;
15312;SDS011;7757;52.626;4.746;2022-11-20T07:45:54;9.55;;;2.70;;
15312;SDS011;7757;52.626;4.746;2022-11-20T07:48:22;9.82;;;2.65;;
15312;SDS011;7757;52.626;4.746;2022-11-20T07:50:49;8.70;;;2.80;;
15312;SDS011;7757;52.626;4.746;2022-11-20T07:53:15;9.35;;;2.35;;
15312;SDS011;7757;52.626;4.746;2022-11-20T07:55:45;8.57;;;2.53;;
15312;SDS011;7757;52.626;4.746;2022-11-20T07:58:12;10.05;;;2.70;;
15312;SDS011;7757;52.626;4.746;2022-11-20T08:00:39;9.45;;;2.55;;
15312;SDS011;7757;52.626;4.746;2022-11-20T08:03:06;9.38;;;2.80;;
15312;SDS011;7757;52.626;4.746;2022-11-20T08:05:34;9.35;;;2.70;;
15312;SDS011;7757;52.626;4.746;2022-11-20T08:08:00;9.90;;;2.85;;
15312;SDS011;7757;52.626;4.746;2022-11-20T08:10:27;9.10;;;2.72;;
15312;SDS011;7757;52.626;4.746;2022-11-20T08:12:54;9.70;;;2.70;;
15312;SDS011;7757;52.626;4.746;2022-11-20T08:15:39;9.63;;;2.70;;
15312;SDS011;7757;52.626;4.746;2022-11-20T08:18:06;9.32;;;2.55;;
15312;SDS011;7757;52.626;4.746;2022-11-20T08:20:37;7.95;;;2.40;;
15312;SDS011;7757;52.626;4.746;2022-11-20T08:23:04;9.05;;;2.70;;
15312;SDS011;7757;52.626;4.746;2022-11-20T08:25:34;9.82;;;2.60;;
15312;SDS011;7757;52.626;4.746;2022-11-20T08:28:03;11.88;;;2.58;;
15312;SDS011;7757;52.626;4.746;2022-11-20T08:30:31;10.38;;;2.42;;
15312;SDS011;7757;52.626;4.746;2022-11-20T08:33:00;8.32;;;2.50;;
15312;SDS011;7757;52.626;4.746;2022-11-20T08:35:28;11.00;;;2.65;;
15312;SDS011;7757;52.626;4.746;2022-11-20T08:37:56;9.10;;;2.60;;
15312;SDS011;7757;52.626;4.746;2022-11-20T08:40:22;9.65;;;2.70;;
15312;SDS011;7757;52.626;4.746;2022-11-20T08:42:49;8.77;;;2.40;;
15312;SDS011;7757;52.626;4.746;2022-11-20T08:45:18;10.02;;;2.50;;
15312;SDS011;7757;52.626;4.746;2022-11-20T08:47:45;7.82;;;2.50;;
15312;SDS011;7757;52.626;4.746;2022-11-20T08:50:12;9.07;;;2.50;;
15312;SDS011;7757;52.626;4.746;2022-11-20T08:52:40;8.35;;;2.40;;
15312;SDS011;7757;52.626;4.746;2022-11-20T08:55:09;11.98;;;2.72;;
15312;SDS011;7757;52.626;4.746;2022-11-20T08:57:36;10.13;;;2.70;;
15312;SDS011;7757;52.626;4.746;2022-11-20T09:00:04;10.75;;;2.88;;
15312;SDS011;7757;52.626;4.746;2022-11-20T09:02:32;9.57;;;2.67;;
15312;SDS011;7757;52.626;4.746;2022-11-20T09:04:59;10.77;;;2.30;;
15312;SDS011;7757;52.626;4.746;2022-11-20T09:07:27;9.00;;;2.67;;
15312;SDS011;7757;52.626;4.746;2022-11-20T09:09:54;10.95;;;2.80;;
15312;SDS011;7757;52.626;4.746;2022-11-20T09:12:22;14.25;;;2.72;;
15312;SDS011;7757;52.626;4.746;2022-11-20T09:14:49;13.00;;;2.92;;
15312;SDS011;7757;52.626;4.746;2022-11-20T09:17:15;19.65;;;4.07;;
15312;SDS011;7757;52.626;4.746;2022-11-20T09:19:42;18.08;;;3.83;;
15312;SDS011;7757;52.626;4.746;2022-11-20T09:22:08;24.08;;;5.28;;
15312;SDS011;7757;52.626;4.746;2022-11-20T09:24:35;37.30;;;5.93;;
15312;SDS011;7757;52.626;4.746;2022-11-20T09:27:03;32.60;;;6.10;;
15312;SDS011;7757;52.626;4.746;2022-11-20T09:29:31;26.27;;;5.60;;
15312;SDS011;7757;52.626;4.746;2022-11-20T09:31:58;30.98;;;6.40;;
15312;SDS011;7757;52.626;4.746;2022-11-20T09:34:25;24.13;;;5.78;;
15312;SDS011;7757;52.626;4.746;2022-11-20T09:36:51;29.00;;;5.68;;
15312;SDS011;7757;52.626;4.746;2022-11-20T09:39:18;22.83;;;5.30;;
15312;SDS011;7757;52.626;4.746;2022-11-20T09:44:44;25.88;;;4.75;;
15312;SDS011;7757;52.626;4.746;2022-11-20T09:47:21;22.30;;;4.90;;
15312;SDS011;7757;52.626;4.746;2022-11-20T09:49:59;18.65;;;4.93;;
15312;SDS011;7757;52.626;4.746;2022-11-20T09:52:45;22.77;;;4.57;;
15312;SDS011;7757;52.626;4.746;2022-11-20T09:55:19;18.00;;;4.93;;
15312;SDS011;7757;52.626;4.746;2022-11-20T09:57:47;21.55;;;4.90;;
15312;SDS011;7757;52.626;4.746;2022-11-20T10:00:18;20.98;;;4.63;;
15312;SDS011;7757;52.626;4.746;2022-11-20T10:02:47;20.42;;;4.68;;
15312;SDS011;7757;52.626;4.746;2022-11-20T10:05:20;18.58;;;3.95;;
15312;SDS011;7757;52.626;4.746;2022-11-20T10:07:52;18.90;;;4.50;;
15312;SDS011;7757;52.626;4.746;2022-11-20T10:10:25;14.65;;;3.85;;
15312;SDS011;7757;52.626;4.746;2022-11-20T10:13:07;17.00;;;4.13;;
15312;SDS011;7757;52.626;4.746;2022-11-20T10:15:44;17.40;;;3.97;;
15312;SDS011;7757;52.626;4.746;2022-11-20T10:18:28;18.05;;;3.97;;
15312;SDS011;7757;52.626;4.746;2022-11-20T10:21:07;18.23;;;3.92;;
15312;SDS011;7757;52.626;4.746;2022-11-20T10:26:29;12.98;;;3.50;;
15312;SDS011;7757;52.626;4.746;2022-11-20T10:29:08;17.80;;;4.68;;
15312;SDS011;7757;52.626;4.746;2022-11-20T10:31:40;12.38;;;3.70;;
15312;SDS011;7757;52.626;4.746;2022-11-20T10:34:12;14.85;;;3.88;;
15312;SDS011;7757;52.626;4.746;2022-11-20T10:36:47;16.33;;;3.53;;
15312;SDS011;7757;52.626;4.746;2022-11-20T10:39:20;14.98;;;4.13;;
15312;SDS011;7757;52.626;4.746;2022-11-20T10:41:54;13.57;;;3.50;;
15312;SDS011;7757;52.626;4.746;2022-11-20T10:44:26;11.80;;;3.20;;
15312;SDS011;7757;52.626;4.746;2022-11-20T10:47:13;13.85;;;3.50;;
15312;SDS011;7757;52.626;4.746;2022-11-20T10:49:41;14.13;;;3.38;;
15312;SDS011;7757;52.626;4.746;2022-11-20T10:52:11;13.52;;;3.30;;
15312;SDS011;7757;52.626;4.746;2022-11-20T10:54:47;11.10;;;3.13;;
15312;SDS011;7757;52.626;4.746;2022-11-20T10:59:57;11.30;;;3.50;;
15312;SDS011;7757;52.626;4.746;2022-11-20T11:02:34;11.50;;;3.10;;
15312;SDS011;7757;52.626;4.746;2022-11-20T11:05:10;14.07;;;3.58;;
15312;SDS011;7757;52.626;4.746;2022-11-20T11:07:44;11.82;;;3.17;;
15312;SDS011;7757;52.626;4.746;2022-11-20T11:12:43;25.05;;;3.75;;
15312;SDS011;7757;52.626;4.746;2022-11-20T11:15:12;16.70;;;3.88;;
15312;SDS011;7757;52.626;4.746;2022-11-20T11:17:51;11.57;;;2.72;;
15312;SDS011;7757;52.626;4.746;2022-11-20T11:20:18;13.05;;;3.50;;
15312;SDS011;7757;52.626;4.746;2022-11-20T11:22:46;12.65;;;2.60;;
15312;SDS011;7757;52.626;4.746;2022-11-20T11:25:18;13.05;;;3.30;;
15312;SDS011;7757;52.626;4.746;2022-11-20T11:27:47;10.95;;;3.10;;
15312;SDS011;7757;52.626;4.746;2022-11-20T11:30:15;12.02;;;3.20;;
15312;SDS011;7757;52.626;4.746;2022-11-20T11:32:43;12.23;;;3.13;;
15312;SDS011;7757;52.626;4.746;2022-11-20T11:37:55;11.27;;;3.20;;
15312;SDS011;7757;52.626;4.746;2022-11-20T11:40:31;12.48;;;3.00;;
15312;SDS011;7757;52.626;4.746;2022-11-20T11:43:01;11.02;;;3.28;;
15312;SDS011;7757;52.626;4.746;2022-11-20T11:45:30;9.40;;;2.72;;
15312;SDS011;7757;52.626;4.746;2022-11-20T11:47:56;10.88;;;2.95;;
15312;SDS011;7757;52.626;4.746;2022-11-20T11:50:28;9.93;;;2.70;;
15312;SDS011;7757;52.626;4.746;2022-11-20T11:52:58;9.25;;;2.65;;
15312;SDS011;7757;52.626;4.746;2022-11-20T11:55:33;10.73;;;3.10;;
15312;SDS011;7757;52.626;4.746;2022-11-20T11:58:14;11.05;;;3.60;;
15312;SDS011;7757;52.626;4.746;2022-11-20T12:00:49;12.02;;;3.08;;
15312;SDS011;7757;52.626;4.746;2022-11-20T12:03:22;12.80;;;2.75;;
15312;SDS011;7757;52.626;4.746;2022-11-20T12:05:55;9.98;;;3.08;;
15312;SDS011;7757;52.626;4.746;2022-11-20T12:08:27;12.05;;;2.75;;
15312;SDS011;7757;52.626;4.746;2022-11-20T12:10:59;9.25;;;2.70;;
15312;SDS011;7757;52.626;4.746;2022-11-20T12:13:36;9.63;;;2.72;;
15312;SDS011;7757;52.626;4.746;2022-11-20T12:16:10;11.30;;;3.03;;
15312;SDS011;7757;52.626;4.746;2022-11-20T12:18:39;9.18;;;3.03;;
15312;SDS011;7757;52.626;4.746;2022-11-20T12:21:11;9.52;;;2.58;;
15312;SDS011;7757;52.626;4.746;2022-11-20T12:23:48;8.70;;;2.45;;
15312;SDS011;7757;52.626;4.746;2022-11-20T12:26:27;11.00;;;2.70;;
15312;SDS011;7757;52.626;4.746;2022-11-20T12:29:04;10.07;;;2.70;;
15312;SDS011;7757;52.626;4.746;2022-11-20T12:31:44;8.70;;;2.58;;
15312;SDS011;7757;52.626;4.746;2022-11-20T12:34:31;9.27;;;2.60;;
15312;SDS011;7757;52.626;4.746;2022-11-20T12:37:13;9.45;;;2.75;;
15312;SDS011;7757;52.626;4.746;2022-11-20T12:39:49;10.60;;;2.65;;
15312;SDS011;7757;52.626;4.746;2022-11-20T12:42:28;10.50;;;2.72;;
15312;SDS011;7757;52.626;4.746;2022-11-20T12:45:32;10.20;;;2.90;;
15312;SDS011;7757;52.626;4.746;2022-11-20T12:51:19;12.13;;;2.90;;
15312;SDS011;7757;52.626;4.746;2022-11-20T12:54:02;10.75;;;2.88;;
15312;SDS011;7757;52.626;4.746;2022-11-20T12:56:46;9.23;;;2.58;;
15312;SDS011;7757;52.626;4.746;2022-11-20T12:59:24;8.98;;;2.60;;
15312;SDS011;7757;52.626;4.746;2022-11-20T13:02:01;12.18;;;2.88;;
15312;SDS011;7757;52.626;4.746;2022-11-20T13:04:42;9.00;;;2.70;;
15312;SDS011;7757;52.626;4.746;2022-11-20T13:07:25;9.10;;;2.80;;
15312;SDS011;7757;52.626;4.746;2022-11-20T13:09:55;10.23;;;2.90;;
15312;SDS011;7757;52.626;4.746;2022-11-20T13:12:24;10.27;;;3.30;;
15312;SDS011;7757;52.626;4.746;2022-11-20T13:14:58;11.38;;;3.05;;
15312;SDS011;7757;52.626;4.746;2022-11-20T13:17:37;9.13;;;2.80;;
15312;SDS011;7757;52.626;4.746;2022-11-20T13:20:12;8.93;;;2.60;;
15312;SDS011;7757;52.626;4.746;2022-11-20T13:22:42;10.40;;;2.67;;
15312;SDS011;7757;52.626;4.746;2022-11-20T13:25:21;9.98;;;2.88;;
15312;SDS011;7757;52.626;4.746;2022-11-20T13:27:48;10.05;;;2.90;;
15312;SDS011;7757;52.626;4.746;2022-11-20T13:30:16;10.10;;;2.72;;
15312;SDS011;7757;52.626;4.746;2022-11-20T13:32:48;11.70;;;3.10;;
15312;SDS011;7757;52.626;4.746;2022-11-20T13:35:23;8.93;;;2.78;;
15312;SDS011;7757;52.626;4.746;2022-11-20T13:38:05;9.50;;;2.72;;
15312;SDS011;7757;52.626;4.746;2022-11-20T13:40:37;11.48;;;2.80;;
15312;SDS011;7757;52.626;4.746;2022-11-20T13:43:15;11.07;;;2.75;;
15312;SDS011;7757;52.626;4.746;2022-11-20T13:45:54;10.98;;;2.90;;
15312;SDS011;7757;52.626;4.746;2022-11-20T13:48:23;11.30;;;2.90;;
15312;SDS011;7757;52.626;4.746;2022-11-20T13:50:57;11.32;;;2.80;;
15312;SDS011;7757;52.626;4.746;2022-11-20T13:53:37;14.70;;;4.80;;
15312;SDS011;7757;52.626;4.746;2022-11-20T13:56:22;11.88;;;3.30;;
15312;SDS011;7757;52.626;4.746;2022-11-20T13:58:58;10.00;;;3.17;;
15312;SDS011;7757;52.626;4.746;2022-11-20T14:01:29;9.73;;;3.00;;
15312;SDS011;7757;52.626;4.746;2022-11-20T14:03:57;9.63;;;2.78;;
15312;SDS011;7757;52.626;4.746;2022-11-20T14:06:25;10.23;;;2.90;;
15312;SDS011;7757;52.626;4.746;2022-11-20T14:08:53;10.30;;;3.33;;
15312;SDS011;7757;52.626;4.746;2022-11-20T14:11:23;10.05;;;3.50;;
15312;SDS011;7757;52.626;4.746;2022-11-20T14:13:55;12.80;;;4.40;;
15312;SDS011;7757;52.626;4.746;2022-11-20T14:16:26;11.00;;;3.50;;
15312;SDS011;7757;52.626;4.746;2022-11-20T14:18:54;12.13;;;3.85;;
15312;SDS011;7757;52.626;4.746;2022-11-20T14:21:23;9.90;;;3.03;;
15312;SDS011;7757;52.626;4.746;2022-11-20T14:23:54;11.38;;;3.45;;
15312;SDS011;7757;52.626;4.746;2022-11-20T14:26:31;11.35;;;3.55;;
15312;SDS011;7757;52.626;4.746;2022-11-20T14:28:59;11.68;;;3.58;;
15312;SDS011;7757;52.626;4.746;2022-11-20T14:31:26;12.35;;;3.80;;
15312;SDS011;7757;52.626;4.746;2022-11-20T14:33:54;12.40;;;3.60;;
15312;SDS011;7757;52.626;4.746;2022-11-20T14:36:22;11.07;;;3.28;;
15312;SDS011;7757;52.626;4.746;2022-11-20T14:38:50;11.25;;;3.55;;
15312;SDS011;7757;52.626;4.746;2022-11-20T14:41:18;11.50;;;3.75;;
15312;SDS011;7757;52.626;4.746;2022-11-20T14:43:48;11.18;;;3.53;;
15312;SDS011;7757;52.626;4.746;2022-11-20T14:46:19;12.18;;;3.78;;
15312;SDS011;7757;52.626;4.746;2022-11-20T14:48:46;12.85;;;4.00;;
15312;SDS011;7757;52.626;4.746;2022-11-20T14:51:23;11.50;;;4.07;;
15312;SDS011;7757;52.626;4.746;2022-11-20T14:53:54;11.15;;;3.72;;
15312;SDS011;7757;52.626;4.746;2022-11-20T14:56:21;14.73;;;3.78;;
15312;SDS011;7757;52.626;4.746;2022-11-20T14:58:56;12.32;;;4.03;;
15312;SDS011;7757;52.626;4.746;2022-11-20T15:01:25;13.38;;;4.72;;
15312;SDS011;7757;52.626;4.746;2022-11-20T15:03:58;11.55;;;3.83;;
15312;SDS011;7757;52.626;4.746;2022-11-20T15:06:26;12.40;;;4.00;;
15312;SDS011;7757;52.626;4.746;2022-11-20T15:08:54;13.90;;;4.90;;
15312;SDS011;7757;52.626;4.746;2022-11-20T15:11:23;14.02;;;4.00;;
15312;SDS011;7757;52.626;4.746;2022-11-20T15:13:56;12.18;;;3.83;;
15312;SDS011;7757;52.626;4.746;2022-11-20T15:16:24;18.80;;;5.38;;
15312;SDS011;7757;52.626;4.746;2022-11-20T15:18:53;11.63;;;3.85;;
15312;SDS011;7757;52.626;4.746;2022-11-20T15:21:20;15.40;;;5.88;;
15312;SDS011;7757;52.626;4.746;2022-11-20T15:23:47;14.10;;;5.13;;